6NK1 weather

Casey's Airport
Warsaw, New York, United States

Public forecast

Using degrees Fahrenheit for public forecast. Weather courtesy of forecast.io.

Closest aviation weather report (METAR) to Casey's Airport

Closest report is Dansville Municipal Airport, 23.3 nm (43.1 km) ESE. Retrieved 2020/05/26 15:54 UTC (50 minutes ago):

KDSV 261554Z AUTO VRB04KT 10SM CLR 31/17 A3014 RMK AO2 SLP210 T03110167

Closest aviation forecast (TAF) to Casey's Airport

Closest forecast is Buffalo Niagara International Airport, 26.9 nm (49.8 km) WNW. Retrieved 2020/05/26 12:22 UTC (4 hours ago):

TAF KBUF 261120Z 2612/2712 14004KT P6SM SCT250 FM261500 22008KT P6SM FEW050 SCT250 FM262000 20008KT P6SM BKN050 FM270000 00000KT P6SM SCT250 FM271000 19007KT P6SM FEW250